Time;durP1;ratioP1;P1;durP2;ratioP2;P2;SDS_P1;SDS_P2;PMS_P1;PMS_P2;Temp;Humidity;BMP_temperature;BMP_pressure;BME280_temperature;BME280_humidity;BME280_pressure;Samples;Min_cycle;Max_cycle;Signal;HPM_P1;HPM_P2
2020/12/10 00:02:01;;;;;;;46.72;32.10;;;;;;;;;;5039915;28;20037;-68
2020/12/10 00:04:48;;;;;;;47.92;31.42;;;;;;;;;;5035443;28;20056;-69
2020/12/10 00:07:14;;;;;;;46.17;30.77;;;;;;;;;;5036032;28;20076;-69
2020/12/10 00:10:00;;;;;;;46.80;29.50;;;;;;;;;;5055096;28;20041;-69
2020/12/10 00:12:27;;;;;;;47.40;32.47;;;;;;;;;;5035835;28;20037;-69
2020/12/10 00:14:53;;;;;;;50.65;31.15;;;;;;;;;;5035425;28;20099;-70
2020/12/10 00:17:40;;;;;;;46.42;29.90;;;;;;;;;;5052129;28;20540;-70
2020/12/10 00:20:07;;;;;;;44.83;30.73;;;;;;;;;;5062667;28;20041;-70
2020/12/10 00:22:34;;;;;;;48.38;30.85;;;;;;;;;;5040311;28;20369;-70
2020/12/10 00:25:01;;;;;;;45.53;30.38;;;;;;;;;;5037706;28;20052;-70
2020/12/10 00:27:47;;;;;;;45.72;30.90;;;;;;;;;;5036578;28;20048;-70
2020/12/10 00:30:13;;;;;;;43.25;27.90;;;;;;;;;;5051560;28;20061;-70
2020/12/10 00:32:40;;;;;;;51.65;32.55;;;;;;;;;;5036895;28;20923;-70
2020/12/10 00:35:07;;;;;;;44.88;30.55;;;;;;;;;;5037514;28;20063;-70
2020/12/10 00:37:54;;;;;;;48.03;31.13;;;;;;;;;;5033491;28;20049;-70
2020/12/10 00:40:20;;;;;;;44.40;29.85;;;;;;;;;;5037081;28;20464;-70
2020/12/10 00:42:47;;;;;;;45.70;30.50;;;;;;;;;;5035092;28;20090;-70
2020/12/10 00:45:33;;;;;;;;;;;;;;;;;;5024372;28;20131;-70
2020/12/10 00:48:19;;;;;;;44.97;30.58;;;;;;;;;;5034133;28;19921;-70
2020/12/10 00:51:08;;;;;;;51.60;30.05;;;;;;;;;;5031995;28;20045;-70
2020/12/10 00:53:34;;;;;;;45.95;30.55;;;;;;;;;;5036372;28;20099;-69
2020/12/10 00:56:00;;;;;;;47.08;31.02;;;;;;;;;;5036870;28;20041;-70
2020/12/10 00:58:27;;;;;;;49.67;31.92;;;;;;;;;;5034834;28;20045;-70
2020/12/10 01:01:14;;;;;;;48.13;30.80;;;;;;;;;;5035588;28;20096;-69
2020/12/10 01:04:00;;;;;;;43.58;29.55;;;;;;;;;;5060491;28;20187;-69
2020/12/10 01:06:26;;;;;;;45.42;30.55;;;;;;;;;;5045891;28;20056;-70
2020/12/10 01:09:12;;;;;;;45.67;29.20;;;;;;;;;;5019840;28;20072;-69
2020/12/10 01:11:59;;;;;;;46.95;28.92;;;;;;;;;;5036341;28;20139;-70
2020/12/10 01:14:25;;;;;;;45.50;29.90;;;;;;;;;;5042595;28;20079;-70
2020/12/10 01:16:51;;;;;;;44.72;30.10;;;;;;;;;;5043940;28;20655;-70
2020/12/10 01:19:38;;;;;;;39.95;26.45;;;;;;;;;;5038817;28;20036;-69
2020/12/10 01:22:04;;;;;;;49.45;31.50;;;;;;;;;;5050672;28;20618;-70
2020/12/10 01:24:50;;;;;;;43.80;29.42;;;;;;;;;;5044093;28;20142;-69
2020/12/10 01:27:37;;;;;;;42.30;29.20;;;;;;;;;;5046026;28;20068;-70
2020/12/10 01:30:04;;;;;;;45.22;29.58;;;;;;;;;;5068835;28;20100;-70
2020/12/10 01:32:30;;;;;;;47.42;30.50;;;;;;;;;;5057509;28;20361;-70
2020/12/10 01:34:57;;;;;;;44.80;30.23;;;;;;;;;;5059234;28;20088;-69
2020/12/10 01:37:23;;;;;;;40.20;28.10;;;;;;;;;;5044994;28;20121;-70
2020/12/10 01:39:50;;;;;;;40.78;27.38;;;;;;;;;;5059552;28;20044;-70
2020/12/10 01:42:16;;;;;;;38.42;27.15;;;;;;;;;;5026463;28;20126;-69
2020/12/10 01:44:43;;;;;;;43.13;28.50;;;;;;;;;;5060050;28;20043;-69
2020/12/10 01:47:09;;;;;;;44.58;28.98;;;;;;;;;;5064230;28;21021;-69
2020/12/10 01:49:37;;;;;;;41.60;28.52;;;;;;;;;;5044357;28;20521;-69
2020/12/10 01:52:04;;;;;;;46.47;30.40;;;;;;;;;;5060763;28;20036;-69
2020/12/10 01:54:31;;;;;;;44.70;30.17;;;;;;;;;;5058664;28;20652;-69
2020/12/10 01:56:57;;;;;;;42.50;28.98;;;;;;;;;;5058216;28;20120;-69
2020/12/10 01:59:24;;;;;;;38.67;27.65;;;;;;;;;;5060503;28;20060;-69
2020/12/10 02:02:10;;;;;;;37.38;26.30;;;;;;;;;;5045977;28;20048;-69
2020/12/10 02:04:37;;;;;;;41.95;27.52;;;;;;;;;;5059117;28;20028;-69
2020/12/10 02:07:06;;;;;;;43.80;28.45;;;;;;;;;;5067954;28;20070;-69
2020/12/10 02:09:52;;;;;;;40.22;26.77;;;;;;;;;;5063176;28;20041;-69
2020/12/10 02:12:18;;;;;;;41.42;27.65;;;;;;;;;;5038433;28;20040;-70
2020/12/10 02:14:45;;;;;;;40.72;29.10;;;;;;;;;;5058712;28;20044;-70
2020/12/10 02:17:11;;;;;;;44.15;29.63;;;;;;;;;;5059622;28;20047;-69
2020/12/10 02:19:37;;;;;;;41.80;27.52;;;;;;;;;;5063647;28;20170;-69
2020/12/10 02:22:04;;;;;;;40.17;27.27;;;;;;;;;;5065627;28;20102;-69
2020/12/10 02:24:50;;;;;;;38.60;27.52;;;;;;;;;;5043212;28;20044;-69
2020/12/10 02:27:16;;;;;;;43.08;28.13;;;;;;;;;;5064497;28;20456;-69
2020/12/10 02:29:42;;;;;;;41.00;29.70;;;;;;;;;;5059254;28;20036;-69
2020/12/10 02:32:09;;;;;;;43.13;27.65;;;;;;;;;;5062684;28;20052;-69
2020/12/10 02:34:35;;;;;;;41.15;28.75;;;;;;;;;;5059045;28;20044;-69
2020/12/10 02:37:01;;;;;;;42.30;28.95;;;;;;;;;;5059612;28;20059;-69
2020/12/10 02:39:27;;;;;;;41.22;28.75;;;;;;;;;;5059653;28;20962;-69
2020/12/10 02:41:54;;;;;;;41.67;28.40;;;;;;;;;;5062675;28;20037;-69
2020/12/10 02:44:20;;;;;;;42.22;28.95;;;;;;;;;;5061832;28;20056;-69
2020/12/10 02:46:46;;;;;;;42.22;27.80;;;;;;;;;;5060905;28;20035;-69
2020/12/10 02:49:13;;;;;;;46.67;29.13;;;;;;;;;;5060305;28;20044;-69
2020/12/10 02:51:42;;;;;;;43.88;29.83;;;;;;;;;;5060752;28;20107;-69
2020/12/10 02:54:09;;;;;;;47.00;30.08;;;;;;;;;;5066468;28;20048;-69
2020/12/10 02:56:55;;;;;;;45.47;29.10;;;;;;;;;;5046985;28;20086;-68
2020/12/10 02:59:21;;;;;;;44.47;29.27;;;;;;;;;;5059260;28;20045;-69
2020/12/10 03:02:08;;;;;;;47.75;29.95;;;;;;;;;;5028713;28;20052;-69
2020/12/10 03:04:34;;;;;;;41.63;28.40;;;;;;;;;;5028810;28;20039;-68
2020/12/10 03:07:00;;;;;;;45.10;30.10;;;;;;;;;;5059448;28;20049;-69
2020/12/10 03:09:27;;;;;;;46.03;29.20;;;;;;;;;;5042751;28;20165;-69
2020/12/10 03:12:13;;;;;;;51.25;32.08;;;;;;;;;;5044992;28;20136;-69
2020/12/10 03:14:40;;;;;;;46.35;29.55;;;;;;;;;;5057042;28;21778;-69
2020/12/10 03:17:06;;;;;;;44.63;27.63;;;;;;;;;;5058158;28;20046;-69
2020/12/10 03:19:33;;;;;;;47.05;29.42;;;;;;;;;;5055390;28;20044;-69
2020/12/10 03:21:59;;;;;;;47.28;31.13;;;;;;;;;;5058132;28;20202;-69
2020/12/10 03:24:45;;;;;;;44.83;29.08;;;;;;;;;;5043604;28;20411;-69
2020/12/10 03:27:32;;;;;;;39.88;25.38;;;;;;;;;;5048784;28;20384;-69
2020/12/10 03:29:58;;;;;;;43.63;27.80;;;;;;;;;;5060100;28;20505;-69
2020/12/10 03:32:24;;;;;;;47.17;27.17;;;;;;;;;;5044684;28;20032;-69
2020/12/10 03:34:50;;;;;;;45.40;28.92;;;;;;;;;;5060597;28;20072;-68
2020/12/10 03:37:37;;;;;;;41.28;27.38;;;;;;;;;;5042467;28;20165;-68
2020/12/10 03:40:04;;;;;;;42.22;28.63;;;;;;;;;;5053557;28;20345;-69
2020/12/10 03:42:50;;;;;;;43.97;28.73;;;;;;;;;;5064890;28;20475;-69
2020/12/10 03:45:17;;;;;;;44.33;28.25;;;;;;;;;;5058620;28;20171;-69
2020/12/10 03:47:43;;;;;;;41.17;26.42;;;;;;;;;;5058240;28;20044;-68
2020/12/10 03:50:09;;;;;;;43.25;27.02;;;;;;;;;;5065986;28;20161;-69
2020/12/10 03:52:35;;;;;;;43.90;26.83;;;;;;;;;;5059976;28;20040;-69
2020/12/10 03:55:22;;;;;;;43.47;27.57;;;;;;;;;;5048031;28;20547;-68
2020/12/10 03:57:48;;;;;;;39.28;26.60;;;;;;;;;;5059718;28;20374;-69
2020/12/10 04:00:34;;;;;;;44.33;28.63;;;;;;;;;;5029046;28;20048;-69
2020/12/10 04:03:01;;;;;;;42.88;27.98;;;;;;;;;;5061108;28;20295;-68
2020/12/10 04:05:47;;;;;;;43.70;28.50;;;;;;;;;;5042353;28;20067;-69
2020/12/10 04:08:14;;;;;;;40.70;27.10;;;;;;;;;;5056764;28;20353;-68
2020/12/10 04:10:40;;;;;;;45.53;28.05;;;;;;;;;;5056667;28;21136;-69
2020/12/10 04:13:26;;;;;;;44.97;28.13;;;;;;;;;;5063746;28;20070;-69
2020/12/10 04:16:13;;;;;;;45.90;27.55;;;;;;;;;;5042824;28;21642;-70
2020/12/10 04:18:59;;;;;;;49.63;30.38;;;;;;;;;;5052926;28;20147;-69
2020/12/10 04:21:26;;;;;;;49.05;30.27;;;;;;;;;;5058920;28;20052;-69
2020/12/10 04:23:52;;;;;;;50.53;30.95;;;;;;;;;;5056338;28;20120;-69
2020/12/10 04:26:19;;;;;;;48.88;29.80;;;;;;;;;;5055683;28;20041;-69
2020/12/10 04:29:05;;;;;;;51.00;31.58;;;;;;;;;;5042626;28;20528;-69
2020/12/10 04:31:31;;;;;;;54.72;32.65;;;;;;;;;;5052745;28;20407;-69
2020/12/10 04:33:58;;;;;;;54.00;34.28;;;;;;;;;;5057359;28;20083;-69
2020/12/10 04:36:24;;;;;;;58.38;34.47;;;;;;;;;;5037292;28;20041;-69
2020/12/10 04:38:50;;;;;;;54.85;33.00;;;;;;;;;;5058857;28;20081;-69
2020/12/10 04:41:16;;;;;;;54.95;33.72;;;;;;;;;;5040670;28;20045;-70
2020/12/10 04:43:42;;;;;;;54.70;31.20;;;;;;;;;;5053995;28;20060;-69
2020/12/10 04:46:10;;;;;;;55.97;33.08;;;;;;;;;;5055803;28;20036;-69
2020/12/10 04:48:57;;;;;;;51.35;31.45;;;;;;;;;;5042259;28;20499;-69
2020/12/10 04:51:24;;;;;;;48.72;31.10;;;;;;;;;;5055063;28;20040;-69
2020/12/10 04:53:51;;;;;;;49.83;29.55;;;;;;;;;;5057509;28;20523;-69
2020/12/10 04:56:17;;;;;;;48.58;28.73;;;;;;;;;;5054723;28;20127;-69
2020/12/10 04:59:04;;;;;;;51.67;29.50;;;;;;;;;;5043211;28;21542;-69
2020/12/10 05:01:51;;;;;;;46.45;29.40;;;;;;;;;;5066275;28;20113;-69
2020/12/10 05:04:37;;;;;;;;;;;;;;;;;;5047064;28;20066;-69
2020/12/10 05:07:04;;;;;;;47.97;27.88;;;;;;;;;;5059802;28;19924;-69
2020/12/10 05:09:30;;;;;;;47.30;29.77;;;;;;;;;;5054655;28;20068;-69
2020/12/10 05:11:56;;;;;;;42.55;27.65;;;;;;;;;;5057621;28;20033;-68
2020/12/10 05:14:22;;;;;;;46.40;29.33;;;;;;;;;;5054606;28;20068;-69
2020/12/10 05:17:11;;;;;;;46.72;29.23;;;;;;;;;;5043545;28;20048;-69
2020/12/10 05:19:58;;;;;;;48.20;29.63;;;;;;;;;;5063026;28;20047;-69
2020/12/10 05:22:24;;;;;;;44.67;28.52;;;;;;;;;;5053794;28;20045;-69
2020/12/10 05:25:06;;;;;;;48.58;30.25;;;;;;;;;;5057084;28;20079;-69
2020/12/10 05:27:32;;;;;;;48.30;28.73;;;;;;;;;;5056661;28;20028;-69
2020/12/10 05:29:58;;;;;;;46.67;28.85;;;;;;;;;;5056037;28;20119;-69
2020/12/10 05:32:38;;;;;;;49.80;31.20;;;;;;;;;;5056914;28;20110;-70
2020/12/10 05:35:24;;;;;;;52.08;32.20;;;;;;;;;;5038814;28;20117;-69
2020/12/10 05:37:53;;;;;;;52.25;32.72;;;;;;;;;;5058163;28;20041;-69
2020/12/10 05:40:20;;;;;;;54.65;31.13;;;;;;;;;;5053595;28;20048;-69
2020/12/10 05:42:47;;;;;;;52.22;31.70;;;;;;;;;;5055554;28;20052;-69
2020/12/10 05:45:15;;;;;;;47.83;30.25;;;;;;;;;;5067504;28;20589;-69
2020/12/10 05:47:46;;;;;;;48.13;30.95;;;;;;;;;;5068082;28;20039;-69
2020/12/10 05:50:13;;;;;;;46.40;29.70;;;;;;;;;;5057762;28;20071;-69
2020/12/10 05:53:10;;;;;;;49.42;30.60;;;;;;;;;;5048875;28;20044;-69
2020/12/10 05:55:36;;;;;;;;;;;;;;;;;;5059268;28;20040;-69
2020/12/10 05:58:03;;;;;;;48.17;30.43;;;;;;;;;;5059037;28;20391;-69
2020/12/10 06:00:29;;;;;;;51.13;33.00;;;;;;;;;;5057997;28;20033;-69
2020/12/10 06:02:56;;;;;;;50.38;30.90;;;;;;;;;;5067205;28;20526;-69
2020/12/10 06:05:24;;;;;;;48.08;28.48;;;;;;;;;;5063149;28;20068;-70
2020/12/10 06:08:02;;;;;;;48.03;29.13;;;;;;;;;;5063243;28;20066;-69
2020/12/10 06:10:28;;;;;;;48.38;30.85;;;;;;;;;;5059884;28;20506;-69
2020/12/10 06:12:55;;;;;;;45.72;29.80;;;;;;;;;;5064525;28;20453;-71
2020/12/10 06:15:23;;;;;;;50.50;32.50;;;;;;;;;;5060999;28;20048;-70
2020/12/10 06:18:10;;;;;;;46.08;29.42;;;;;;;;;;5042356;28;20067;-70
2020/12/10 06:20:38;;;;;;;50.67;31.17;;;;;;;;;;5053186;28;20037;-69
2020/12/10 06:23:25;;;;;;;51.03;31.42;;;;;;;;;;5062914;28;20079;-69
2020/12/10 06:26:33;;;;;;;47.67;31.50;;;;;;;;;;5041762;28;20045;-69
2020/12/10 06:29:17;;;;;;;50.63;29.95;;;;;;;;;;5066155;28;20223;-69
2020/12/10 06:32:05;;;;;;;52.63;29.98;;;;;;;;;;5037658;28;20041;-69
2020/12/10 06:34:57;;;;;;;45.88;30.02;;;;;;;;;;5034344;28;20150;-71
2020/12/10 06:37:28;;;;;;;47.08;30.17;;;;;;;;;;5054603;28;20048;-69
2020/12/10 06:40:27;;;;;;;46.40;29.23;;;;;;;;;;5062688;28;20829;-70
2020/12/10 06:43:13;;;;;;;50.25;31.50;;;;;;;;;;5041162;28;20425;-70
2020/12/10 06:45:41;;;;;;;47.22;28.98;;;;;;;;;;5056125;28;20053;-71
2020/12/10 06:48:08;;;;;;;49.25;30.67;;;;;;;;;;5057321;28;20033;-71
2020/12/10 06:51:09;;;;;;;50.97;30.27;;;;;;;;;;5066424;28;20047;-70
2020/12/10 06:54:00;;;;;;;45.75;27.70;;;;;;;;;;5045558;28;20067;-70
2020/12/10 06:56:57;;;;;;;47.67;28.08;;;;;;;;;;5041005;28;20500;-70
2020/12/10 06:59:42;;;;;;;47.75;27.73;;;;;;;;;;5053678;28;20071;-72
2020/12/10 07:02:29;;;;;;;42.53;28.08;;;;;;;;;;5063344;28;20068;-71
2020/12/10 07:04:55;;;;;;;44.78;27.85;;;;;;;;;;5059386;28;20116;-71
2020/12/10 07:07:25;;;;;;;47.33;30.02;;;;;;;;;;5063111;28;20040;-70
2020/12/10 07:09:53;;;;;;;42.35;27.23;;;;;;;;;;5050984;28;20566;-70
2020/12/10 07:12:20;;;;;;;47.10;28.80;;;;;;;;;;5066659;28;20127;-70
2020/12/10 07:14:47;;;;;;;43.75;28.98;;;;;;;;;;5064039;28;20093;-70
2020/12/10 07:17:13;;;;;;;38.15;25.48;;;;;;;;;;5060909;28;20049;-71
2020/12/10 07:20:00;;;;;;;43.95;27.30;;;;;;;;;;5044888;28;20116;-70
2020/12/10 07:22:26;;;;;;;43.35;26.80;;;;;;;;;;5065049;28;20101;-70
2020/12/10 07:24:52;;;;;;;48.67;28.30;;;;;;;;;;5063525;28;20040;-69
2020/12/10 07:27:42;;;;;;;44.67;29.23;;;;;;;;;;5068838;28;20045;-70
2020/12/10 07:30:12;;;;;;;42.83;27.60;;;;;;;;;;5064173;28;20042;-70
2020/12/10 07:32:59;;;;;;;44.22;27.85;;;;;;;;;;5053774;28;20040;-70
2020/12/10 07:35:45;;;;;;;43.92;28.35;;;;;;;;;;5050040;28;20052;-70
2020/12/10 07:38:14;;;;;;;46.72;28.67;;;;;;;;;;5065398;28;20327;-71
2020/12/10 07:40:40;;;;;;;40.30;26.50;;;;;;;;;;5074548;28;20044;-70
2020/12/10 07:43:07;;;;;;;40.75;26.45;;;;;;;;;;5066071;28;20036;-68
2020/12/10 07:45:53;;;;;;;;;;;;;;;;;;5033195;28;20182;-69
2020/12/10 07:48:20;;;;;;;39.30;26.73;;;;;;;;;;5065748;28;19944;-68
2020/12/10 07:50:47;;;;;;;39.17;26.60;;;;;;;;;;5071570;28;20484;-69
2020/12/10 07:53:33;;;;;;;;;;;;;;;;;;5049119;28;20063;-69
2020/12/10 07:56:01;;;;;;;41.70;25.63;;;;;;;;;;5061285;28;20038;-69
2020/12/10 07:58:33;;;;;;;42.85;26.15;;;;;;;;;;5064435;28;20456;-69
2020/12/10 08:01:03;;;;;;;38.88;25.27;;;;;;;;;;5065935;28;20037;-69
2020/12/10 08:03:48;;;;;;;42.83;26.33;;;;;;;;;;5065017;28;20029;-69
2020/12/10 08:06:15;;;;;;;42.15;26.02;;;;;;;;;;5048002;28;20051;-69
2020/12/10 08:09:06;;;;;;;42.55;25.33;;;;;;;;;;5050585;28;20131;-69
2020/12/10 08:11:54;;;;;;;41.13;25.00;;;;;;;;;;5063495;28;20132;-69
2020/12/10 08:14:27;;;;;;;38.58;24.50;;;;;;;;;;5066213;28;20470;-70
2020/12/10 08:17:20;;;;;;;36.88;24.02;;;;;;;;;;5034406;28;20097;-69
2020/12/10 08:19:57;;;;;;;37.83;23.83;;;;;;;;;;5066175;28;20481;-69
2020/12/10 08:22:25;;;;;;;41.90;26.10;;;;;;;;;;5062115;28;20127;-69
2020/12/10 08:25:18;;;;;;;37.72;24.17;;;;;;;;;;5034458;28;20131;-69
2020/12/10 08:27:44;;;;;;;42.28;24.58;;;;;;;;;;5065070;28;20033;-69
2020/12/10 08:30:11;;;;;;;40.13;24.75;;;;;;;;;;5065126;28;20439;-69
2020/12/10 08:32:49;;;;;;;36.60;23.50;;;;;;;;;;5071354;28;20044;-69
2020/12/10 08:35:41;;;;;;;35.95;23.38;;;;;;;;;;5049322;28;20261;-69
2020/12/10 08:38:07;;;;;;;37.78;24.60;;;;;;;;;;5064613;28;20048;-70
2020/12/10 08:40:56;;;;;;;39.45;23.73;;;;;;;;;;5053414;28;20055;-72
2020/12/10 08:43:53;;;;;;;41.03;27.50;;;;;;;;;;5049364;28;20072;-70
2020/12/10 08:46:19;;;;;;;37.13;24.35;;;;;;;;;;5064480;28;20116;-70
2020/12/10 08:48:45;;;;;;;37.20;24.35;;;;;;;;;;5048157;28;20408;-70
2020/12/10 08:51:11;;;;;;;33.83;21.95;;;;;;;;;;5047428;28;20097;-70
2020/12/10 08:53:45;;;;;;;36.05;23.05;;;;;;;;;;5046761;28;20048;-70
2020/12/10 08:56:19;;;;;;;36.10;24.17;;;;;;;;;;5062933;28;20429;-70
2020/12/10 08:59:06;;;;;;;32.05;20.75;;;;;;;;;;5049398;28;20360;-70
2020/12/10 09:01:32;;;;;;;33.00;21.55;;;;;;;;;;5065666;28;20048;-70
2020/12/10 09:04:19;;;;;;;29.63;20.15;;;;;;;;;;5045191;28;20081;-69
2020/12/10 09:06:46;;;;;;;30.50;21.05;;;;;;;;;;5064694;28;20499;-70
2020/12/10 09:09:13;;;;;;;29.38;19.10;;;;;;;;;;5068916;28;20040;-70
2020/12/10 09:11:39;;;;;;;29.30;19.70;;;;;;;;;;5053169;28;20036;-70
2020/12/10 09:14:06;;;;;;;31.40;20.65;;;;;;;;;;5058922;28;20106;-70
2020/12/10 09:16:32;;;;;;;31.65;21.48;;;;;;;;;;5056659;28;20488;-70
2020/12/10 09:18:58;;;;;;;31.30;20.92;;;;;;;;;;5055203;28;20127;-70
2020/12/10 09:21:25;;;;;;;31.60;19.48;;;;;;;;;;5068181;28;20041;-70
2020/12/10 09:23:51;;;;;;;30.45;20.10;;;;;;;;;;5060286;28;20048;-70
2020/12/10 09:26:18;;;;;;;28.67;19.52;;;;;;;;;;5045560;28;20047;-69
2020/12/10 09:29:04;;;;;;;29.48;20.05;;;;;;;;;;5050070;28;20152;-70
2020/12/10 09:31:53;;;;;;;31.60;19.42;;;;;;;;;;5071545;28;20439;-70
2020/12/10 09:34:40;;;;;;;34.53;20.75;;;;;;;;;;5048364;28;20490;-70
2020/12/10 09:37:06;;;;;;;29.77;20.58;;;;;;;;;;5048569;28;20052;-70
2020/12/10 09:39:34;;;;;;;29.27;19.80;;;;;;;;;;5065791;28;20034;-70
2020/12/10 09:42:01;;;;;;;27.13;18.75;;;;;;;;;;5068011;28;20193;-70
2020/12/10 09:44:27;;;;;;;29.98;19.30;;;;;;;;;;5067332;28;20033;-70
2020/12/10 09:47:13;;;;;;;28.98;19.38;;;;;;;;;;5039221;28;20079;-70
2020/12/10 09:49:40;;;;;;;32.05;20.27;;;;;;;;;;5061084;28;20123;-69
2020/12/10 09:52:07;;;;;;;29.05;19.45;;;;;;;;;;5061195;28;20039;-70
2020/12/10 09:55:01;;;;;;;;;;;;;;;;;;5045351;28;20531;-69
2020/12/10 09:57:30;;;;;;;33.83;20.85;;;;;;;;;;5058869;28;19916;-70
2020/12/10 09:59:57;;;;;;;28.80;18.88;;;;;;;;;;5049579;28;20500;-70
2020/12/10 10:02:24;;;;;;;28.65;19.75;;;;;;;;;;5065384;28;20119;-69
2020/12/10 10:04:50;;;;;;;29.30;19.77;;;;;;;;;;5063655;28;20044;-69
2020/12/10 10:07:17;;;;;;;30.98;19.90;;;;;;;;;;5063691;28;20182;-70
2020/12/10 10:10:04;;;;;;;30.52;21.30;;;;;;;;;;5033534;28;20044;-69
2020/12/10 10:12:30;;;;;;;29.83;19.40;;;;;;;;;;5046818;28;20028;-70
2020/12/10 10:14:56;;;;;;;29.38;20.08;;;;;;;;;;5063573;28;20094;-70
2020/12/10 10:17:23;;;;;;;31.30;20.88;;;;;;;;;;5063637;28;20040;-70
2020/12/10 10:20:09;;;;;;;32.88;20.27;;;;;;;;;;5050706;28;20148;-70
2020/12/10 10:22:57;;;;;;;30.92;20.42;;;;;;;;;;5048033;28;20136;-69
2020/12/10 10:25:23;;;;;;;30.48;20.08;;;;;;;;;;5059797;28;20190;-69
2020/12/10 10:27:50;;;;;;;33.35;21.40;;;;;;;;;;5066496;28;20128;-70
2020/12/10 10:30:36;;;;;;;32.72;20.77;;;;;;;;;;5049821;28;20047;-70
2020/12/10 10:33:23;;;;;;;30.55;19.63;;;;;;;;;;5046899;28;20443;-70
2020/12/10 10:36:10;;;;;;;;;;;;;;;;;;5047366;28;20059;-70
2020/12/10 10:38:36;;;;;;;32.60;19.95;;;;;;;;;;5064818;28;19962;-70
2020/12/10 10:41:03;;;;;;;29.00;20.20;;;;;;;;;;5073427;28;20041;-70
2020/12/10 10:43:30;;;;;;;30.77;19.52;;;;;;;;;;5063255;28;20031;-69
2020/12/10 10:46:18;;;;;;;32.17;20.58;;;;;;;;;;5048552;28;20063;-70
2020/12/10 10:48:44;;;;;;;31.73;20.23;;;;;;;;;;5064412;28;20078;-70
2020/12/10 10:51:11;;;;;;;32.15;20.75;;;;;;;;;;5064238;28;20396;-69
2020/12/10 10:53:38;;;;;;;30.80;20.55;;;;;;;;;;5062546;28;20045;-69
2020/12/10 10:56:05;;;;;;;28.88;19.98;;;;;;;;;;5069641;28;20387;-70
2020/12/10 10:58:51;;;;;;;31.95;20.88;;;;;;;;;;5033762;28;20055;-69
2020/12/10 11:01:26;;;;;;;31.38;19.52;;;;;;;;;;5043627;28;20520;-69
2020/12/10 11:03:53;;;;;;;33.45;20.60;;;;;;;;;;5073537;28;20060;-69
2020/12/10 11:06:19;;;;;;;32.55;21.65;;;;;;;;;;5061261;28;20487;-70
2020/12/10 11:08:46;;;;;;;33.65;21.75;;;;;;;;;;5061729;28;20453;-69
2020/12/10 11:11:32;;;;;;;31.17;21.13;;;;;;;;;;5032673;28;20105;-69
2020/12/10 11:13:59;;;;;;;32.20;20.52;;;;;;;;;;5072786;28;20539;-69
2020/12/10 11:16:25;;;;;;;30.80;19.27;;;;;;;;;;5062155;28;20045;-69
2020/12/10 11:18:52;;;;;;;31.48;20.75;;;;;;;;;;5067065;28;20337;-69
2020/12/10 11:21:25;;;;;;;32.78;19.42;;;;;;;;;;5045992;28;20040;-69
2020/12/10 11:23:51;;;;;;;29.88;20.42;;;;;;;;;;5060336;28;20045;-68
2020/12/10 11:26:18;;;;;;;33.67;21.45;;;;;;;;;;5070352;28;20408;-69
2020/12/10 11:29:04;;;;;;;56.88;29.92;;;;;;;;;;5055682;28;20037;-69
2020/12/10 11:31:30;;;;;;;45.85;27.30;;;;;;;;;;5062245;28;20086;-69
2020/12/10 11:34:17;;;;;;;39.92;24.33;;;;;;;;;;5063761;28;20052;-68
2020/12/10 11:36:45;;;;;;;35.55;23.95;;;;;;;;;;5063062;28;20037;-68
2020/12/10 11:39:31;;;;;;;39.33;23.65;;;;;;;;;;5044904;28;20052;-68
2020/12/10 11:41:57;;;;;;;36.67;23.45;;;;;;;;;;5060635;28;20037;-68
2020/12/10 11:44:24;;;;;;;39.53;25.95;;;;;;;;;;5061885;28;20044;-68
2020/12/10 11:46:50;;;;;;;41.10;25.48;;;;;;;;;;5060972;28;20033;-69
2020/12/10 11:49:16;;;;;;;41.05;24.77;;;;;;;;;;5066874;28;20129;-68
2020/12/10 11:51:43;;;;;;;36.83;24.85;;;;;;;;;;5059945;28;20108;-69
2020/12/10 11:54:09;;;;;;;37.30;23.30;;;;;;;;;;5059492;28;20040;-68
2020/12/10 11:56:35;;;;;;;39.58;24.02;;;;;;;;;;5057620;28;20045;-71
2020/12/10 11:59:02;;;;;;;41.72;25.52;;;;;;;;;;5044271;28;20430;-70
2020/12/10 12:01:48;;;;;;;44.22;25.33;;;;;;;;;;5049581;28;20032;-68
2020/12/10 12:04:15;;;;;;;39.35;24.45;;;;;;;;;;5072531;28;20139;-69
2020/12/10 12:06:41;;;;;;;43.50;25.38;;;;;;;;;;5063405;28;20044;-69
2020/12/10 12:09:07;;;;;;;42.35;26.17;;;;;;;;;;5064076;28;20047;-71
2020/12/10 12:11:34;;;;;;;42.45;25.05;;;;;;;;;;5063309;28;20052;-70
2020/12/10 12:14:00;;;;;;;40.33;22.83;;;;;;;;;;5046795;28;20115;-71
2020/12/10 12:16:27;;;;;;;29.58;17.35;;;;;;;;;;5060605;28;20044;-71
2020/12/10 12:19:13;;;;;;;35.22;17.52;;;;;;;;;;5047081;28;20097;-70
2020/12/10 12:22:01;;;;;;;36.63;17.73;;;;;;;;;;5046856;28;20124;-71
2020/12/10 12:24:27;;;;;;;29.73;16.00;;;;;;;;;;5059399;28;20057;-71
2020/12/10 12:26:54;;;;;;;23.90;14.90;;;;;;;;;;5059244;28;20063;-71
2020/12/10 12:29:21;;;;;;;28.15;15.20;;;;;;;;;;5065307;28;20911;-71
2020/12/10 12:31:47;;;;;;;29.90;16.00;;;;;;;;;;5044685;28;20036;-72
2020/12/10 12:34:34;;;;;;;28.38;14.65;;;;;;;;;;5034407;28;20049;-72
2020/12/10 12:37:00;;;;;;;27.42;15.07;;;;;;;;;;5070373;28;20096;-72
2020/12/10 12:39:47;;;;;;;28.88;15.32;;;;;;;;;;5050824;28;20195;-72
2020/12/10 12:42:33;;;;;;;24.67;14.95;;;;;;;;;;5057638;28;20048;-72
2020/12/10 12:44:59;;;;;;;26.38;14.82;;;;;;;;;;5055469;28;20049;-72
2020/12/10 12:47:26;;;;;;;22.33;14.07;;;;;;;;;;5059783;28;20352;-72
2020/12/10 12:49:52;;;;;;;28.92;14.95;;;;;;;;;;5072610;28;20036;-72
2020/12/10 12:52:18;;;;;;;24.85;14.40;;;;;;;;;;5066296;28;20033;-72
2020/12/10 12:54:45;;;;;;;23.33;13.98;;;;;;;;;;5056679;28;20036;-71
2020/12/10 12:57:11;;;;;;;20.52;14.07;;;;;;;;;;5058813;28;20044;-71
2020/12/10 12:59:57;;;;;;;27.20;13.45;;;;;;;;;;5043826;28;20044;-71
2020/12/10 13:02:44;;;;;;;22.88;14.32;;;;;;;;;;5068905;28;20055;-71
2020/12/10 13:05:30;;;;;;;21.63;13.00;;;;;;;;;;5046329;28;20483;-72
2020/12/10 13:07:57;;;;;;;22.70;13.73;;;;;;;;;;5077387;28;20040;-72
2020/12/10 13:10:24;;;;;;;25.63;13.07;;;;;;;;;;5067359;28;20078;-71
2020/12/10 13:12:51;;;;;;;24.05;13.02;;;;;;;;;;5064331;28;20499;-73
2020/12/10 13:15:17;;;;;;;20.40;13.90;;;;;;;;;;5064052;28;20413;-73
2020/12/10 13:17:43;;;;;;;25.00;12.85;;;;;;;;;;5071824;28;20051;-72
2020/12/10 13:20:10;;;;;;;20.65;13.20;;;;;;;;;;5062354;28;20135;-72
2020/12/10 13:22:37;;;;;;;21.30;12.63;;;;;;;;;;5044900;28;20098;-73
2020/12/10 13:25:03;;;;;;;21.85;13.80;;;;;;;;;;5064103;28;20039;-73
2020/12/10 13:27:30;;;;;;;20.67;12.85;;;;;;;;;;5043517;28;20055;-73
2020/12/10 13:30:17;;;;;;;21.48;14.10;;;;;;;;;;5048908;28;20089;-73
2020/12/10 13:33:03;;;;;;;19.63;12.55;;;;;;;;;;5048095;28;20094;-73
2020/12/10 13:35:29;;;;;;;22.42;13.00;;;;;;;;;;5061907;28;20040;-73
2020/12/10 13:37:56;;;;;;;18.08;12.55;;;;;;;;;;5065799;28;20330;-72
2020/12/10 13:40:22;;;;;;;22.08;13.27;;;;;;;;;;5071512;28;20110;-72
2020/12/10 13:43:08;;;;;;;21.65;13.07;;;;;;;;;;5050214;28;20695;-73
2020/12/10 13:45:35;;;;;;;20.38;12.27;;;;;;;;;;5064667;28;20066;-72
2020/12/10 13:48:01;;;;;;;19.40;12.73;;;;;;;;;;5064126;28;20112;-72
2020/12/10 13:50:27;;;;;;;19.27;12.60;;;;;;;;;;5063589;28;20040;-72
2020/12/10 13:52:53;;;;;;;21.45;12.90;;;;;;;;;;5062901;28;20670;-72
2020/12/10 13:55:20;;;;;;;27.40;12.18;;;;;;;;;;5061317;28;20484;-72
2020/12/10 13:57:46;;;;;;;17.98;12.80;;;;;;;;;;5063632;28;20044;-72
2020/12/10 14:00:13;;;;;;;18.90;12.73;;;;;;;;;;5063419;28;20057;-72
2020/12/10 14:02:39;;;;;;;18.63;11.77;;;;;;;;;;5062903;28;20162;-72
2020/12/10 14:05:06;;;;;;;21.17;13.27;;;;;;;;;;5044402;28;20089;-72
2020/12/10 14:07:33;;;;;;;17.23;11.68;;;;;;;;;;5062979;28;20085;-72
2020/12/10 14:09:59;;;;;;;21.55;12.55;;;;;;;;;;5064816;28;20041;-71
2020/12/10 14:12:45;;;;;;;18.23;11.10;;;;;;;;;;5052073;28;20130;-72
2020/12/10 14:15:32;;;;;;;;;;;;;;;;;;5033767;28;20044;-69
2020/12/10 14:17:59;;;;;;;16.98;12.43;;;;;;;;;;5059494;28;19924;-69
2020/12/10 14:20:26;;;;;;;19.13;11.70;;;;;;;;;;5066812;28;20127;-69
2020/12/10 14:22:52;;;;;;;18.25;12.00;;;;;;;;;;5067285;28;20037;-69
2020/12/10 14:25:39;;;;;;;19.35;12.07;;;;;;;;;;5046767;28;20051;-71
2020/12/10 14:28:25;;;;;;;27.02;12.15;;;;;;;;;;5051430;28;20049;-71
2020/12/10 14:30:52;;;;;;;16.83;11.77;;;;;;;;;;5046974;28;20511;-71
2020/12/10 14:33:38;;;;;;;21.50;13.43;;;;;;;;;;5056994;28;20056;-70
2020/12/10 14:36:05;;;;;;;19.75;12.13;;;;;;;;;;5065621;28;20609;-70
2020/12/10 14:38:34;;;;;;;19.35;11.93;;;;;;;;;;5045849;28;20135;-70
2020/12/10 14:41:00;;;;;;;20.45;12.45;;;;;;;;;;5072491;28;20107;-70
2020/12/10 14:43:27;;;;;;;18.42;12.20;;;;;;;;;;5047433;28;20478;-70
2020/12/10 14:46:13;;;;;;;19.70;12.27;;;;;;;;;;5048210;28;20045;-71
2020/12/10 14:48:39;;;;;;;25.27;13.05;;;;;;;;;;5060018;28;20087;-72
2020/12/10 14:51:06;;;;;;;20.10;12.55;;;;;;;;;;5059714;28;20741;-72
2020/12/10 14:53:32;;;;;;;24.50;11.95;;;;;;;;;;5064301;28;20115;-71
2020/12/10 14:55:58;;;;;;;19.65;12.27;;;;;;;;;;5063296;28;20037;-71